createdAt,value
2023-04-18T00:02:01.614Z,53.08
2023-04-18T00:05:09.140Z,53.29
2023-04-18T00:08:16.331Z,53.10
2023-04-18T00:11:20.866Z,53.18
2023-04-18T00:14:27.776Z,53.20
2023-04-18T00:17:35.003Z,53.46
2023-04-18T00:20:41.287Z,53.19
2023-04-18T00:23:46.790Z,53.21
2023-04-18T00:26:51.753Z,53.02
2023-04-18T00:29:56.958Z,53.03
2023-04-18T00:33:02.921Z,53.02
2023-04-18T00:36:09.019Z,53.47
2023-04-18T00:39:14.999Z,53.79
2023-04-18T00:42:20.553Z,53.87
2023-04-18T00:45:26.975Z,54.13
2023-04-18T00:48:32.284Z,54.20
2023-04-18T00:51:38.452Z,54.67
2023-04-18T00:54:43.896Z,54.97
2023-04-18T00:57:50.869Z,55.16
2023-04-18T01:00:57.863Z,54.83
2023-04-18T01:04:03.901Z,55.10
2023-04-18T01:07:09.419Z,55.67
2023-04-18T01:10:16.149Z,55.30
2023-04-18T01:13:30.142Z,55.57
2023-04-18T01:16:36.101Z,55.51
2023-04-18T01:19:44.469Z,55.17
2023-04-18T01:22:50.366Z,55.04
2023-04-18T01:25:56.666Z,54.97
2023-04-18T01:29:02.778Z,54.62
2023-04-18T01:32:09.737Z,54.67
2023-04-18T01:35:15.478Z,54.62
2023-04-18T01:38:20.636Z,54.96
2023-04-18T01:41:25.774Z,54.89
2023-04-18T01:44:31.882Z,54.90
2023-04-18T01:47:37.820Z,54.73
2023-04-18T01:50:42.517Z,54.74
2023-04-18T01:53:48.305Z,54.66
2023-04-18T01:56:53.678Z,54.49
2023-04-18T02:00:00.300Z,54.61
2023-04-18T02:03:16.463Z,54.49
2023-04-18T02:06:23.239Z,54.69
2023-04-18T02:09:30.429Z,55.27
2023-04-18T02:12:35.934Z,55.20
2023-04-18T02:15:41.573Z,55.47
2023-04-18T02:18:47.785Z,55.53
2023-04-18T02:21:54.619Z,55.41
2023-04-18T02:25:00.717Z,54.88
2023-04-18T02:28:05.854Z,55.05
2023-04-18T02:31:11.661Z,55.07
2023-04-18T02:34:16.979Z,55.39
2023-04-18T02:37:22.993Z,55.70
2023-04-18T02:40:30.286Z,55.81
2023-04-18T02:43:35.868Z,56.25
2023-04-18T02:46:41.215Z,56.24
2023-04-18T02:49:46.808Z,56.70
2023-04-18T02:52:52.255Z,56.93
2023-04-18T02:55:59.625Z,57.27
2023-04-18T02:59:23.252Z,58.09
2023-04-18T03:02:30.522Z,58.06
2023-04-18T03:05:38.761Z,58.49
2023-04-18T03:09:00.457Z,58.92
2023-04-18T03:12:08.899Z,59.39
2023-04-18T03:15:14.108Z,59.33
2023-04-18T03:18:20.508Z,59.42
2023-04-18T03:21:28.513Z,59.21
2023-04-18T03:24:33.573Z,59.33
2023-04-18T03:27:38.756Z,59.33
2023-04-18T03:30:46.442Z,59.28
2023-04-18T03:33:52.421Z,59.36
2023-04-18T03:36:58.298Z,59.06
2023-04-18T03:40:06.538Z,59.42
2023-04-18T03:43:14.910Z,58.83
2023-04-18T03:46:20.793Z,58.69
2023-04-18T03:49:26.097Z,58.33
2023-04-18T03:52:31.544Z,58.34
2023-04-18T03:55:36.697Z,57.25
2023-04-18T03:58:43.097Z,57.27
2023-04-18T04:01:48.050Z,57.60
2023-04-18T04:04:55.772Z,56.96
2023-04-18T04:08:01.319Z,57.15
2023-04-18T04:11:07.604Z,57.29
2023-04-18T04:14:14.695Z,55.93
2023-04-18T04:17:20.393Z,56.63
2023-04-18T04:20:28.526Z,56.69
2023-04-18T04:23:35.993Z,56.33
2023-04-18T04:26:43.323Z,55.59
2023-04-18T04:29:50.958Z,56.39
2023-04-18T04:32:58.836Z,56.99
2023-04-18T04:36:04.624Z,56.42
2023-04-18T04:39:15.568Z,56.67
2023-04-18T04:42:38.093Z,57.15
2023-04-18T04:45:46.323Z,56.66
2023-04-18T04:48:54.213Z,56.65
2023-04-18T04:52:01.400Z,57.11
2023-04-18T04:55:07.679Z,56.96
2023-04-18T04:58:13.014Z,56.89
2023-04-18T05:01:28.880Z,57.01
2023-04-18T05:04:34.893Z,56.58
2023-04-18T05:07:41.242Z,58.06
2023-04-18T05:10:48.374Z,58.29
2023-04-18T05:13:54.778Z,58.95
2023-04-18T05:17:00.227Z,59.06
2023-04-18T05:20:06.826Z,58.14
2023-04-18T05:23:12.419Z,58.25
2023-04-18T05:26:22.110Z,58.63
2023-04-18T05:29:27.714Z,57.48
2023-04-18T05:32:33.777Z,59.05
2023-04-18T05:35:43.605Z,58.77
2023-04-18T05:38:48.097Z,58.77
2023-04-18T05:41:53.413Z,59.08
2023-04-18T05:45:01.553Z,58.80
2023-04-18T05:48:07.105Z,57.98
2023-04-18T05:51:13.032Z,57.80
2023-04-18T05:54:18.693Z,57.95
2023-04-18T05:57:24.233Z,57.04
2023-04-18T06:00:30.162Z,57.49
2023-04-18T06:03:35.972Z,56.67
2023-04-18T06:06:42.286Z,57.25
2023-04-18T06:09:49.837Z,58.02
2023-04-18T06:12:54.778Z,57.17
2023-04-18T06:16:00.318Z,58.03
2023-04-18T06:19:06.462Z,57.39
2023-04-18T06:22:11.416Z,56.37
2023-04-18T06:25:16.829Z,56.43
2023-04-18T06:28:22.616Z,56.24
2023-04-18T06:31:28.848Z,53.97
2023-04-18T06:34:35.616Z,54.86
2023-04-18T06:37:41.711Z,55.49
2023-04-18T06:40:47.755Z,56.36
2023-04-18T06:44:03.511Z,57.41
2023-04-18T06:46:59.842Z,57.19
2023-04-18T06:50:06.224Z,57.50
2023-04-18T06:53:11.104Z,58.76
2023-04-18T06:56:15.971Z,56.41
2023-04-18T06:59:21.407Z,55.04
2023-04-18T07:02:32.909Z,55.12
2023-04-18T07:05:38.536Z,54.79
2023-04-18T07:08:44.855Z,54.57
2023-04-18T07:11:50.647Z,53.53
2023-04-18T07:14:55.827Z,53.42
2023-04-18T07:18:01.332Z,53.95
2023-04-18T07:21:06.680Z,55.95
2023-04-18T07:24:12.143Z,55.61
2023-04-18T07:27:18.302Z,56.13
2023-04-18T07:30:24.987Z,55.89
2023-04-18T07:33:31.775Z,57.05
2023-04-18T07:36:38.351Z,56.10
2023-04-18T07:39:43.799Z,54.22
2023-04-18T07:42:50.377Z,55.26
2023-04-18T07:45:56.060Z,54.04
2023-04-18T07:49:01.096Z,53.92
2023-04-18T07:52:06.378Z,54.86
2023-04-18T07:55:14.086Z,54.19
2023-04-18T07:58:19.475Z,54.36
2023-04-18T08:01:29.263Z,56.71
2023-04-18T08:04:37.068Z,55.95
2023-04-18T08:07:44.248Z,55.26
2023-04-18T08:10:52.348Z,55.38
2023-04-18T08:13:59.985Z,54.89
2023-04-18T08:17:06.237Z,54.19
2023-04-18T08:20:14.041Z,54.19
2023-04-18T08:23:20.851Z,56.38
2023-04-18T08:26:26.684Z,55.87
2023-04-18T08:29:32.022Z,55.06
2023-04-18T08:32:38.133Z,55.13
2023-04-18T08:35:43.307Z,55.88
2023-04-18T08:38:49.229Z,56.58
2023-04-18T08:41:55.211Z,54.53
2023-04-18T08:45:00.610Z,55.31
2023-04-18T08:48:07.882Z,55.56
2023-04-18T08:51:13.785Z,54.82
2023-04-18T08:54:20.106Z,53.70
2023-04-18T08:57:32.420Z,53.54
2023-04-18T09:00:37.436Z,53.38
2023-04-18T09:03:55.038Z,54.77
2023-04-18T09:07:07.750Z,53.98
2023-04-18T09:10:13.130Z,52.71
2023-04-18T09:13:19.850Z,53.70
2023-04-18T09:16:27.121Z,53.90
2023-04-18T09:19:33.121Z,53.93
2023-04-18T09:22:40.007Z,53.11
2023-04-18T09:25:59.176Z,53.03
2023-04-18T09:29:04.674Z,54.69
2023-04-18T09:32:14.417Z,53.97
2023-04-18T09:35:20.188Z,54.74
2023-04-18T09:38:25.466Z,55.50
2023-04-18T09:41:31.456Z,53.41
2023-04-18T09:44:39.483Z,54.09
2023-04-18T09:47:51.315Z,52.30
2023-04-18T09:50:58.506Z,53.17
2023-04-18T09:54:03.941Z,52.41
2023-04-18T09:57:09.802Z,51.13
2023-04-18T10:00:27.636Z,51.07
2023-04-18T10:03:36.884Z,51.89
2023-04-18T10:06:44.489Z,50.84
2023-04-18T10:09:51.591Z,52.20
2023-04-18T10:12:58.260Z,50.60
2023-04-18T10:16:06.220Z,51.65
2023-04-18T10:19:12.091Z,53.49
2023-04-18T10:22:17.753Z,51.32
2023-04-18T10:25:31.268Z,51.21
2023-04-18T10:28:39.465Z,50.51
2023-04-18T10:31:45.559Z,51.51
2023-04-18T10:34:52.932Z,51.02
2023-04-18T10:38:08.030Z,51.14
2023-04-18T10:41:42.053Z,51.99
2023-04-18T10:44:47.420Z,49.77
2023-04-18T10:47:53.492Z,51.68
2023-04-18T10:51:33.238Z,52.32
2023-04-18T10:55:09.702Z,51.18
2023-04-18T10:58:16.682Z,51.09
2023-04-18T11:01:23.057Z,50.74
2023-04-18T11:04:29.358Z,51.57
2023-04-18T11:08:21.981Z,52.95
2023-04-18T11:11:28.388Z,51.22
2023-04-18T11:14:38.906Z,50.80
2023-04-18T11:17:54.439Z,51.60
2023-04-18T11:21:05.488Z,51.42
2023-04-18T11:24:12.162Z,51.24
2023-04-18T11:27:29.039Z,51.17
2023-04-18T11:30:40.046Z,51.47
2023-04-18T11:33:46.377Z,51.51
2023-04-18T11:36:52.435Z,51.93
2023-04-18T11:39:58.698Z,51.36
2023-04-18T11:43:04.966Z,51.64
2023-04-18T11:46:12.472Z,51.36
2023-04-18T11:49:18.773Z,49.34
2023-04-18T11:52:28.342Z,51.30
2023-04-18T11:55:34.799Z,51.51
2023-04-18T11:58:50.128Z,52.41
2023-04-18T12:01:58.869Z,52.03
2023-04-18T12:05:15.315Z,51.88
2023-04-18T12:08:27.074Z,51.38
2023-04-18T12:11:36.961Z,53.02
2023-04-18T12:14:42.351Z,52.08
2023-04-18T12:17:49.218Z,50.93
2023-04-18T12:21:02.313Z,52.03
2023-04-18T12:24:09.070Z,51.76
2023-04-18T12:27:14.709Z,51.94
2023-04-18T12:30:21.912Z,51.70
2023-04-18T12:33:27.282Z,52.21
2023-04-18T12:36:35.015Z,52.58
2023-04-18T12:39:40.977Z,50.77
2023-04-18T12:42:46.688Z,51.39
2023-04-18T12:45:52.292Z,51.63
2023-04-18T12:48:57.905Z,52.56
2023-04-18T12:52:03.207Z,52.65
2023-04-18T12:55:08.447Z,51.91
2023-04-18T12:58:13.956Z,51.97
2023-04-18T13:01:21.316Z,52.69
2023-04-18T13:04:27.444Z,51.11
2023-04-18T13:07:33.356Z,51.37
2023-04-18T13:10:39.398Z,52.08
2023-04-18T13:13:45.960Z,53.74
2023-04-18T13:16:50.987Z,53.17
2023-04-18T13:19:55.886Z,52.01
2023-04-18T13:23:01.942Z,51.89
2023-04-18T13:26:06.781Z,52.31
2023-04-18T13:29:12.689Z,52.04
2023-04-18T13:32:20.090Z,52.10
2023-04-18T13:35:27.912Z,53.26
2023-04-18T13:38:33.610Z,54.04
2023-04-18T13:41:40.257Z,53.16
2023-04-18T13:44:45.836Z,53.20
2023-04-18T13:47:51.265Z,52.67
2023-04-18T13:50:58.221Z,53.79
2023-04-18T13:54:07.191Z,53.62
2023-04-18T13:57:16.620Z,53.87
2023-04-18T14:00:23.818Z,53.16
2023-04-18T14:03:29.831Z,53.62
2023-04-18T14:06:35.848Z,54.23
2023-04-18T14:09:41.815Z,53.44
2023-04-18T14:12:47.108Z,54.55
2023-04-18T14:15:53.349Z,53.84
2023-04-18T14:19:01.140Z,54.40
2023-04-18T14:22:07.143Z,54.23
2023-04-18T14:25:12.182Z,54.21
2023-04-18T14:28:24.408Z,54.40
2023-04-18T14:31:30.994Z,53.91
2023-04-18T14:34:38.789Z,54.40
2023-04-18T14:37:44.431Z,54.40
2023-04-18T14:40:50.214Z,54.14
2023-04-18T14:43:56.021Z,53.34
2023-04-18T14:47:00.942Z,54.00
2023-04-18T14:50:06.296Z,54.36
2023-04-18T14:53:11.540Z,55.38
2023-04-18T14:56:17.734Z,54.96
2023-04-18T14:59:23.160Z,55.10
2023-04-18T15:02:28.992Z,54.84
2023-04-18T15:05:35.793Z,55.59
2023-04-18T15:08:41.576Z,54.64
2023-04-18T15:11:47.070Z,55.82
2023-04-18T15:14:52.683Z,55.99
2023-04-18T15:17:59.513Z,55.79
2023-04-18T15:21:05.669Z,56.62
2023-04-18T15:24:11.433Z,56.59
2023-04-18T15:27:17.863Z,56.91
2023-04-18T15:30:25.590Z,57.18
2023-04-18T15:33:31.809Z,57.20
2023-04-18T15:36:38.227Z,57.45
2023-04-18T15:39:44.261Z,57.28
2023-04-18T15:42:50.636Z,57.35
2023-04-18T15:45:55.556Z,58.06
2023-04-18T15:49:01.845Z,58.06
2023-04-18T15:52:09.150Z,58.35
2023-04-18T15:55:13.979Z,59.27
2023-04-18T15:58:20.387Z,59.73
2023-04-18T16:01:28.259Z,59.76
2023-04-18T16:04:34.938Z,59.26
2023-04-18T16:07:40.910Z,59.26
2023-04-18T16:10:46.692Z,59.21
2023-04-18T16:13:51.860Z,59.67
2023-04-18T16:16:58.463Z,59.83
2023-04-18T16:20:04.764Z,60.34
2023-04-18T16:23:10.275Z,60.93
2023-04-18T16:26:15.623Z,61.66
2023-04-18T16:29:21.470Z,61.90
2023-04-18T16:32:27.033Z,62.79
2023-04-18T16:35:32.832Z,63.09
2023-04-18T16:38:38.218Z,63.39
2023-04-18T16:41:43.184Z,64.55
2023-04-18T16:44:48.080Z,65.21
2023-04-18T16:47:53.860Z,64.35
2023-04-18T16:50:59.850Z,64.38
2023-04-18T16:54:06.488Z,65.07
2023-04-18T17:00:54.172Z,66.13
2023-04-18T17:04:00.697Z,66.93
2023-04-18T17:07:05.927Z,67.27
2023-04-18T17:10:12.662Z,67.24
2023-04-18T17:13:18.671Z,67.46
2023-04-18T17:16:24.673Z,68.38
2023-04-18T17:19:30.362Z,68.64
2023-04-18T17:22:37.990Z,68.95
2023-04-18T17:25:43.940Z,69.45
2023-04-18T17:28:48.752Z,70.12
2023-04-18T17:31:55.987Z,70.55
2023-04-18T17:35:02.778Z,70.83
2023-04-18T17:38:01.397Z,71.04
2023-04-18T17:41:18.204Z,71.26
2023-04-18T17:44:24.000Z,71.24
2023-04-18T17:47:29.692Z,71.24
2023-04-18T17:50:35.162Z,71.60
2023-04-18T17:53:41.043Z,71.95
2023-04-18T17:56:46.372Z,72.82
2023-04-18T17:59:51.588Z,72.81
2023-04-18T18:02:57.936Z,72.48
2023-04-18T18:06:04.408Z,72.87
2023-04-18T18:09:09.327Z,73.17
2023-04-18T18:12:15.041Z,73.02
2023-04-18T18:15:22.719Z,73.11
2023-04-18T18:18:27.683Z,73.56
2023-04-18T18:21:33.104Z,73.31
2023-04-18T18:24:39.537Z,73.74
2023-04-18T18:27:45.678Z,74.18
2023-04-18T18:30:51.274Z,74.73
2023-04-18T18:33:56.488Z,74.21
2023-04-18T18:37:03.323Z,75.60
2023-04-18T18:40:10.982Z,75.31
2023-04-18T18:43:15.714Z,75.84
2023-04-18T18:46:21.806Z,76.51
2023-04-18T18:49:28.393Z,77.33
2023-04-18T18:52:38.121Z,77.82
2023-04-18T18:55:44.267Z,78.17
2023-04-18T18:58:50.434Z,79.09
2023-04-18T19:01:55.882Z,79.30
2023-04-18T19:05:01.807Z,78.90
2023-04-18T19:08:10.380Z,79.64
2023-04-18T19:11:17.462Z,80.23
2023-04-18T19:14:22.407Z,80.72
2023-04-18T19:17:29.068Z,80.58
2023-04-18T19:20:33.683Z,80.84
2023-04-18T19:23:40.680Z,79.14
2023-04-18T19:26:47.157Z,78.92
2023-04-18T19:29:53.605Z,79.31
2023-04-18T19:32:59.600Z,80.44
2023-04-18T19:36:04.653Z,80.39
2023-04-18T19:39:11.212Z,80.28
2023-04-18T19:42:17.732Z,80.89
2023-04-18T19:45:24.121Z,80.53
2023-04-18T19:48:31.278Z,80.72
2023-04-18T19:51:36.858Z,80.97
2023-04-18T19:54:44.676Z,81.28
2023-04-18T19:57:54.710Z,81.31
2023-04-18T20:01:00.338Z,81.98
2023-04-18T20:04:06.804Z,82.16
2023-04-18T20:07:13.018Z,81.45
2023-04-18T20:10:18.372Z,83.62
2023-04-18T20:13:23.568Z,84.14
2023-04-18T20:16:29.235Z,83.24
2023-04-18T20:19:36.258Z,83.60
2023-04-18T20:22:41.475Z,82.96
2023-04-18T20:25:48.099Z,82.92
2023-04-18T20:28:53.268Z,83.74
2023-04-18T20:31:51.700Z,84.08
2023-04-18T20:34:58.459Z,84.05
2023-04-18T20:38:04.314Z,85.12
2023-04-18T20:41:10.242Z,83.76
2023-04-18T20:44:16.932Z,84.70
2023-04-18T20:47:22.440Z,84.97
2023-04-18T20:50:28.568Z,85.12
2023-04-18T20:53:36.359Z,85.67
2023-04-18T20:56:42.418Z,85.88
2023-04-18T20:59:47.455Z,85.98
2023-04-18T21:02:53.786Z,86.16
2023-04-18T21:05:59.541Z,86.64
2023-04-18T21:09:05.655Z,86.98
2023-04-18T21:12:10.405Z,86.09
2023-04-18T21:15:15.289Z,86.61
2023-04-18T21:18:20.503Z,86.45
2023-04-18T21:21:19.827Z,86.54
2023-04-18T21:24:24.988Z,86.61
2023-04-18T21:27:30.945Z,86.64
2023-04-18T21:30:36.421Z,86.75
2023-04-18T21:33:42.184Z,86.84
2023-04-18T21:36:48.593Z,87.36
2023-04-18T21:39:53.282Z,87.78
2023-04-18T21:42:58.374Z,87.47
2023-04-18T21:46:06.099Z,87.42
2023-04-18T21:49:12.756Z,87.10
2023-04-18T21:52:17.463Z,86.54
2023-04-18T21:55:23.763Z,85.75
2023-04-18T21:58:28.660Z,86.42
2023-04-18T22:01:33.956Z,86.41
2023-04-18T22:04:40.362Z,86.40
2023-04-18T22:07:57.588Z,86.89
2023-04-18T22:10:56.520Z,85.73
2023-04-18T22:14:04.285Z,86.39
2023-04-18T22:17:13.404Z,86.93
2023-04-18T22:20:21.330Z,86.83
2023-04-18T22:23:26.183Z,87.36
2023-04-18T22:26:32.228Z,87.32
2023-04-18T22:29:36.679Z,87.54
2023-04-18T22:32:41.192Z,87.68
2023-04-18T22:35:46.911Z,87.37
2023-04-18T22:38:53.563Z,86.81
2023-04-18T22:42:00.136Z,86.85
2023-04-18T22:45:04.981Z,86.79
2023-04-18T22:48:10.885Z,87.11
2023-04-18T22:51:15.691Z,87.32
2023-04-18T22:54:22.224Z,87.83
2023-04-18T22:57:27.670Z,88.15
2023-04-18T23:00:32.857Z,88.17
2023-04-18T23:03:40.941Z,88.11
2023-04-18T23:06:45.613Z,88.53
2023-04-18T23:09:51.137Z,90.05
2023-04-18T23:12:56.655Z,90.75
2023-04-18T23:16:02.265Z,90.86
2023-04-18T23:19:07.692Z,90.88
2023-04-18T23:22:13.092Z,91.08
2023-04-18T23:25:18.776Z,92.04
2023-04-18T23:28:24.141Z,92.53
2023-04-18T23:31:22.984Z,93.42
2023-04-18T23:34:28.567Z,92.54
2023-04-18T23:37:34.577Z,92.83
2023-04-18T23:40:39.877Z,92.42
2023-04-18T23:43:44.941Z,92.00
2023-04-18T23:46:50.224Z,91.52
2023-04-18T23:49:55.540Z,91.11
2023-04-18T23:53:02.913Z,91.39
2023-04-18T23:56:08.732Z,90.54
2023-04-18T23:59:14.382Z,90.00
